sensor_id;sensor_type;location;lat;lon;timestamp;P1;durP1;ratioP1;P2;durP2;ratioP2
84168;SDS011;74295;50.146;8.794;2023-11-21T00:02:42;7.83;;;4.17;;
84168;SDS011;74295;50.146;8.794;2023-11-21T00:12:46;7.00;;;3.77;;
84168;SDS011;74295;50.146;8.794;2023-11-21T00:22:51;9.30;;;6.10;;
84168;SDS011;74295;50.146;8.794;2023-11-21T00:32:53;11.13;;;4.47;;
84168;SDS011;74295;50.146;8.794;2023-11-21T00:42:58;10.07;;;5.00;;
84168;SDS011;74295;50.146;8.794;2023-11-21T00:53:01;6.10;;;2.57;;
84168;SDS011;74295;50.146;8.794;2023-11-21T01:03:05;9.17;;;4.80;;
84168;SDS011;74295;50.146;8.794;2023-11-21T01:13:09;15.03;;;4.33;;
84168;SDS011;74295;50.146;8.794;2023-11-21T01:23:13;7.00;;;3.57;;
84168;SDS011;74295;50.146;8.794;2023-11-21T01:33:15;7.80;;;2.70;;
84168;SDS011;74295;50.146;8.794;2023-11-21T01:43:20;6.93;;;3.07;;
84168;SDS011;74295;50.146;8.794;2023-11-21T01:53:23;10.53;;;3.30;;
84168;SDS011;74295;50.146;8.794;2023-11-21T02:03:28;6.50;;;3.50;;
84168;SDS011;74295;50.146;8.794;2023-11-21T02:13:31;5.93;;;2.93;;
84168;SDS011;74295;50.146;8.794;2023-11-21T02:23:35;6.27;;;4.43;;
84168;SDS011;74295;50.146;8.794;2023-11-21T02:33:39;6.27;;;3.87;;
84168;SDS011;74295;50.146;8.794;2023-11-21T02:43:43;6.63;;;4.10;;
84168;SDS011;74295;50.146;8.794;2023-11-21T02:53:46;3.07;;;2.77;;
84168;SDS011;74295;50.146;8.794;2023-11-21T03:03:50;3.40;;;3.00;;
84168;SDS011;74295;50.146;8.794;2023-11-21T03:13:53;2.73;;;2.10;;
84168;SDS011;74295;50.146;8.794;2023-11-21T03:23:57;5.43;;;3.30;;
84168;SDS011;74295;50.146;8.794;2023-11-21T03:34:01;3.23;;;2.10;;
84168;SDS011;74295;50.146;8.794;2023-11-21T03:44:05;3.97;;;2.60;;
84168;SDS011;74295;50.146;8.794;2023-11-21T03:54:07;1.93;;;1.40;;
84168;SDS011;74295;50.146;8.794;2023-11-21T04:04:11;5.20;;;2.10;;
84168;SDS011;74295;50.146;8.794;2023-11-21T04:14:14;4.73;;;3.03;;
84168;SDS011;74295;50.146;8.794;2023-11-21T04:24:19;5.00;;;3.47;;
84168;SDS011;74295;50.146;8.794;2023-11-21T04:34:22;5.33;;;3.40;;
84168;SDS011;74295;50.146;8.794;2023-11-21T04:44:26;5.70;;;4.10;;
84168;SDS011;74295;50.146;8.794;2023-11-21T04:54:28;9.97;;;4.43;;
84168;SDS011;74295;50.146;8.794;2023-11-21T05:04:33;6.63;;;4.93;;
84168;SDS011;74295;50.146;8.794;2023-11-21T05:14:35;7.13;;;6.43;;
84168;SDS011;74295;50.146;8.794;2023-11-21T05:24:39;8.47;;;7.00;;
84168;SDS011;74295;50.146;8.794;2023-11-21T05:34:42;12.17;;;9.33;;
84168;SDS011;74295;50.146;8.794;2023-11-21T05:44:46;16.37;;;12.00;;
84168;SDS011;74295;50.146;8.794;2023-11-21T05:54:48;18.30;;;12.80;;
84168;SDS011;74295;50.146;8.794;2023-11-21T06:04:52;22.30;;;14.40;;
84168;SDS011;74295;50.146;8.794;2023-11-21T06:14:55;17.10;;;13.43;;
84168;SDS011;74295;50.146;8.794;2023-11-21T06:24:59;22.00;;;14.43;;
84168;SDS011;74295;50.146;8.794;2023-11-21T06:35:02;17.33;;;12.73;;
84168;SDS011;74295;50.146;8.794;2023-11-21T06:45:07;11.30;;;8.30;;
84168;SDS011;74295;50.146;8.794;2023-11-21T06:55:12;7.80;;;5.80;;
84168;SDS011;74295;50.146;8.794;2023-11-21T07:05:16;5.40;;;4.67;;
84168;SDS011;74295;50.146;8.794;2023-11-21T07:15:22;7.07;;;6.07;;
84168;SDS011;74295;50.146;8.794;2023-11-21T07:25:28;5.77;;;4.50;;
84168;SDS011;74295;50.146;8.794;2023-11-21T07:35:31;4.97;;;4.40;;
84168;SDS011;74295;50.146;8.794;2023-11-21T07:45:35;5.90;;;4.73;;
84168;SDS011;74295;50.146;8.794;2023-11-21T07:55:37;9.30;;;5.27;;
84168;SDS011;74295;50.146;8.794;2023-11-21T08:05:41;10.47;;;7.67;;
84168;SDS011;74295;50.146;8.794;2023-11-21T08:15:44;11.87;;;9.33;;
84168;SDS011;74295;50.146;8.794;2023-11-21T08:25:49;10.23;;;8.97;;
84168;SDS011;74295;50.146;8.794;2023-11-21T08:35:52;14.63;;;9.63;;
84168;SDS011;74295;50.146;8.794;2023-11-21T08:45:56;12.60;;;10.13;;
84168;SDS011;74295;50.146;8.794;2023-11-21T08:55:59;15.87;;;11.77;;
84168;SDS011;74295;50.146;8.794;2023-11-21T09:06:03;18.57;;;11.33;;
84168;SDS011;74295;50.146;8.794;2023-11-21T09:16:06;16.13;;;11.83;;
84168;SDS011;74295;50.146;8.794;2023-11-21T09:26:11;16.00;;;10.30;;
84168;SDS011;74295;50.146;8.794;2023-11-21T09:36:13;17.03;;;11.17;;
84168;SDS011;74295;50.146;8.794;2023-11-21T09:46:18;19.00;;;11.93;;
84168;SDS011;74295;50.146;8.794;2023-11-21T09:56:23;20.60;;;11.53;;
84168;SDS011;74295;50.146;8.794;2023-11-21T10:06:29;15.33;;;10.33;;
84168;SDS011;74295;50.146;8.794;2023-11-21T10:16:36;12.20;;;8.17;;
84168;SDS011;74295;50.146;8.794;2023-11-21T10:26:42;11.23;;;8.00;;
84168;SDS011;74295;50.146;8.794;2023-11-21T10:36:54;12.10;;;6.30;;
84168;SDS011;74295;50.146;8.794;2023-11-21T10:47:00;10.67;;;5.47;;
84168;SDS011;74295;50.146;8.794;2023-11-21T10:57:04;11.87;;;5.80;;
84168;SDS011;74295;50.146;8.794;2023-11-21T11:07:08;10.73;;;5.10;;
84168;SDS011;74295;50.146;8.794;2023-11-21T11:17:15;9.20;;;4.80;;
84168;SDS011;74295;50.146;8.794;2023-11-21T11:27:30;11.03;;;5.53;;
84168;SDS011;74295;50.146;8.794;2023-11-21T11:37:43;9.10;;;5.17;;
84168;SDS011;74295;50.146;8.794;2023-11-21T11:47:47;12.33;;;6.63;;
84168;SDS011;74295;50.146;8.794;2023-11-21T11:57:51;11.97;;;6.93;;
84168;SDS011;74295;50.146;8.794;2023-11-21T12:07:58;10.73;;;6.77;;
84168;SDS011;74295;50.146;8.794;2023-11-21T12:18:02;16.13;;;8.10;;
84168;SDS011;74295;50.146;8.794;2023-11-21T12:28:07;16.60;;;7.23;;
84168;SDS011;74295;50.146;8.794;2023-11-21T12:38:10;11.70;;;7.60;;
84168;SDS011;74295;50.146;8.794;2023-11-21T12:48:14;14.43;;;8.37;;
84168;SDS011;74295;50.146;8.794;2023-11-21T12:58:22;14.73;;;8.13;;
84168;SDS011;74295;50.146;8.794;2023-11-21T13:08:28;13.47;;;8.80;;
84168;SDS011;74295;50.146;8.794;2023-11-21T13:18:31;15.53;;;8.67;;
84168;SDS011;74295;50.146;8.794;2023-11-21T13:28:37;15.37;;;8.90;;
84168;SDS011;74295;50.146;8.794;2023-11-21T13:38:41;15.97;;;9.53;;
84168;SDS011;74295;50.146;8.794;2023-11-21T13:48:46;12.33;;;8.83;;
84168;SDS011;74295;50.146;8.794;2023-11-21T13:58:52;13.13;;;9.20;;
84168;SDS011;74295;50.146;8.794;2023-11-21T14:08:57;13.50;;;8.87;;
84168;SDS011;74295;50.146;8.794;2023-11-21T14:19:01;13.97;;;9.27;;
84168;SDS011;74295;50.146;8.794;2023-11-21T14:29:17;18.73;;;9.27;;
84168;SDS011;74295;50.146;8.794;2023-11-21T14:39:21;19.33;;;9.57;;
84168;SDS011;74295;50.146;8.794;2023-11-21T14:49:28;14.97;;;9.33;;
84168;SDS011;74295;50.146;8.794;2023-11-21T14:59:43;17.83;;;9.03;;
84168;SDS011;74295;50.146;8.794;2023-11-21T15:09:49;14.73;;;8.57;;
84168;SDS011;74295;50.146;8.794;2023-11-21T15:19:54;13.10;;;8.97;;
84168;SDS011;74295;50.146;8.794;2023-11-21T15:29:58;17.87;;;9.70;;
84168;SDS011;74295;50.146;8.794;2023-11-21T15:40:01;16.60;;;9.10;;
84168;SDS011;74295;50.146;8.794;2023-11-21T15:50:08;16.70;;;9.43;;
84168;SDS011;74295;50.146;8.794;2023-11-21T16:00:12;14.57;;;8.97;;
84168;SDS011;74295;50.146;8.794;2023-11-21T16:10:21;13.40;;;10.00;;
84168;SDS011;74295;50.146;8.794;2023-11-21T16:20:23;21.27;;;10.83;;
84168;SDS011;74295;50.146;8.794;2023-11-21T16:30:28;18.90;;;10.77;;
84168;SDS011;74295;50.146;8.794;2023-11-21T16:40:32;18.23;;;11.37;;
84168;SDS011;74295;50.146;8.794;2023-11-21T16:50:36;18.90;;;10.00;;
84168;SDS011;74295;50.146;8.794;2023-11-21T17:00:38;14.87;;;10.33;;
84168;SDS011;74295;50.146;8.794;2023-11-21T17:10:42;11.13;;;8.37;;
84168;SDS011;74295;50.146;8.794;2023-11-21T17:20:45;18.27;;;9.40;;
84168;SDS011;74295;50.146;8.794;2023-11-21T17:30:49;14.70;;;9.00;;
84168;SDS011;74295;50.146;8.794;2023-11-21T17:40:51;15.17;;;9.33;;
84168;SDS011;74295;50.146;8.794;2023-11-21T17:50:56;12.13;;;7.90;;
84168;SDS011;74295;50.146;8.794;2023-11-21T18:00:58;11.77;;;7.97;;
84168;SDS011;74295;50.146;8.794;2023-11-21T18:11:02;13.03;;;7.57;;
84168;SDS011;74295;50.146;8.794;2023-11-21T18:21:06;10.57;;;6.17;;
84168;SDS011;74295;50.146;8.794;2023-11-21T18:31:10;6.23;;;4.50;;
84168;SDS011;74295;50.146;8.794;2023-11-21T18:41:19;6.03;;;5.43;;
84168;SDS011;74295;50.146;8.794;2023-11-21T18:51:24;4.77;;;4.37;;
84168;SDS011;74295;50.146;8.794;2023-11-21T19:01:27;8.30;;;5.30;;
84168;SDS011;74295;50.146;8.794;2023-11-21T19:11:33;6.63;;;6.03;;
84168;SDS011;74295;50.146;8.794;2023-11-21T19:21:35;7.87;;;6.63;;
84168;SDS011;74295;50.146;8.794;2023-11-21T19:31:39;7.23;;;6.17;;
84168;SDS011;74295;50.146;8.794;2023-11-21T19:41:42;10.47;;;7.20;;
84168;SDS011;74295;50.146;8.794;2023-11-21T19:51:46;10.27;;;7.07;;
84168;SDS011;74295;50.146;8.794;2023-11-21T20:01:50;10.07;;;6.83;;
84168;SDS011;74295;50.146;8.794;2023-11-21T20:11:55;8.60;;;7.37;;
84168;SDS011;74295;50.146;8.794;2023-11-21T20:21:59;11.63;;;7.40;;
84168;SDS011;74295;50.146;8.794;2023-11-21T20:32:04;8.37;;;6.37;;
84168;SDS011;74295;50.146;8.794;2023-11-21T20:42:07;9.90;;;6.23;;
84168;SDS011;74295;50.146;8.794;2023-11-21T20:52:11;6.80;;;4.77;;
84168;SDS011;74295;50.146;8.794;2023-11-21T21:02:14;4.13;;;3.37;;
84168;SDS011;74295;50.146;8.794;2023-11-21T21:12:18;3.47;;;3.17;;
84168;SDS011;74295;50.146;8.794;2023-11-21T21:22:21;4.03;;;3.43;;
84168;SDS011;74295;50.146;8.794;2023-11-21T21:32:24;4.27;;;3.43;;
84168;SDS011;74295;50.146;8.794;2023-11-21T21:42:27;5.43;;;4.23;;
84168;SDS011;74295;50.146;8.794;2023-11-21T21:52:35;4.23;;;3.60;;
84168;SDS011;74295;50.146;8.794;2023-11-21T22:02:40;3.80;;;3.03;;
84168;SDS011;74295;50.146;8.794;2023-11-21T22:12:44;2.87;;;2.20;;
84168;SDS011;74295;50.146;8.794;2023-11-21T22:22:47;3.20;;;1.90;;
84168;SDS011;74295;50.146;8.794;2023-11-21T22:32:52;2.90;;;1.60;;
84168;SDS011;74295;50.146;8.794;2023-11-21T22:42:57;2.60;;;1.70;;
84168;SDS011;74295;50.146;8.794;2023-11-21T22:53:01;2.73;;;1.63;;
84168;SDS011;74295;50.146;8.794;2023-11-21T23:03:04;10.47;;;2.37;;
84168;SDS011;74295;50.146;8.794;2023-11-21T23:13:10;2.13;;;1.60;;
84168;SDS011;74295;50.146;8.794;2023-11-21T23:23:12;2.20;;;1.57;;
84168;SDS011;74295;50.146;8.794;2023-11-21T23:33:16;2.90;;;2.37;;
84168;SDS011;74295;50.146;8.794;2023-11-21T23:43:21;4.00;;;2.03;;
84168;SDS011;74295;50.146;8.794;2023-11-21T23:53:25;3.10;;;2.30;;
